sensor_id;sensor_type;location;lat;lon;timestamp;P1;durP1;ratioP1;P2;durP2;ratioP2
1679;SDS011;838;51.794;12.258;2022-11-15T00:01:52;25.30;;;17.23;;
1679;SDS011;838;51.794;12.258;2022-11-15T00:04:18;23.20;;;16.93;;
1679;SDS011;838;51.794;12.258;2022-11-15T00:06:43;25.00;;;16.37;;
1679;SDS011;838;51.794;12.258;2022-11-15T00:09:09;25.90;;;15.33;;
1679;SDS011;838;51.794;12.258;2022-11-15T00:11:35;24.80;;;15.40;;
1679;SDS011;838;51.794;12.258;2022-11-15T00:14:00;22.50;;;16.27;;
1679;SDS011;838;51.794;12.258;2022-11-15T00:16:29;28.00;;;16.97;;
1679;SDS011;838;51.794;12.258;2022-11-15T00:18:54;23.17;;;15.27;;
1679;SDS011;838;51.794;12.258;2022-11-15T00:21:22;23.80;;;15.67;;
1679;SDS011;838;51.794;12.258;2022-11-15T00:23:47;22.87;;;15.30;;
1679;SDS011;838;51.794;12.258;2022-11-15T00:26:13;29.27;;;17.83;;
1679;SDS011;838;51.794;12.258;2022-11-15T00:28:40;21.23;;;14.93;;
1679;SDS011;838;51.794;12.258;2022-11-15T00:31:08;22.50;;;14.53;;
1679;SDS011;838;51.794;12.258;2022-11-15T00:33:36;21.93;;;14.97;;
1679;SDS011;838;51.794;12.258;2022-11-15T00:36:03;18.87;;;12.53;;
1679;SDS011;838;51.794;12.258;2022-11-15T00:38:31;25.47;;;15.80;;
1679;SDS011;838;51.794;12.258;2022-11-15T00:41:00;21.50;;;14.87;;
1679;SDS011;838;51.794;12.258;2022-11-15T00:43:27;22.03;;;14.80;;
1679;SDS011;838;51.794;12.258;2022-11-15T00:45:53;21.90;;;15.67;;
1679;SDS011;838;51.794;12.258;2022-11-15T00:48:19;23.23;;;14.80;;
1679;SDS011;838;51.794;12.258;2022-11-15T00:50:45;20.10;;;15.20;;
1679;SDS011;838;51.794;12.258;2022-11-15T00:53:11;22.77;;;14.20;;
1679;SDS011;838;51.794;12.258;2022-11-15T00:55:37;23.20;;;14.03;;
1679;SDS011;838;51.794;12.258;2022-11-15T00:58:03;19.60;;;12.87;;
1679;SDS011;838;51.794;12.258;2022-11-15T01:00:28;19.00;;;12.83;;
1679;SDS011;838;51.794;12.258;2022-11-15T01:02:54;18.20;;;12.27;;
1679;SDS011;838;51.794;12.258;2022-11-15T01:05:20;19.60;;;13.87;;
1679;SDS011;838;51.794;12.258;2022-11-15T01:07:46;21.90;;;13.40;;
1679;SDS011;838;51.794;12.258;2022-11-15T01:10:12;16.17;;;12.13;;
1679;SDS011;838;51.794;12.258;2022-11-15T01:12:37;19.00;;;12.90;;
1679;SDS011;838;51.794;12.258;2022-11-15T01:15:03;16.93;;;11.80;;
1679;SDS011;838;51.794;12.258;2022-11-15T01:17:30;18.40;;;11.27;;
1679;SDS011;838;51.794;12.258;2022-11-15T01:19:55;19.30;;;12.77;;
1679;SDS011;838;51.794;12.258;2022-11-15T01:22:21;20.87;;;11.97;;
1679;SDS011;838;51.794;12.258;2022-11-15T01:24:48;16.63;;;10.40;;
1679;SDS011;838;51.794;12.258;2022-11-15T01:27:15;18.73;;;12.03;;
1679;SDS011;838;51.794;12.258;2022-11-15T01:29:40;19.10;;;11.87;;
1679;SDS011;838;51.794;12.258;2022-11-15T01:32:06;19.10;;;11.57;;
1679;SDS011;838;51.794;12.258;2022-11-15T01:34:32;16.43;;;12.30;;
1679;SDS011;838;51.794;12.258;2022-11-15T01:36:58;17.13;;;12.60;;
1679;SDS011;838;51.794;12.258;2022-11-15T01:39:23;14.40;;;11.03;;
1679;SDS011;838;51.794;12.258;2022-11-15T01:41:49;16.70;;;12.30;;
1679;SDS011;838;51.794;12.258;2022-11-15T01:44:34;17.30;;;11.77;;
1679;SDS011;838;51.794;12.258;2022-11-15T01:47:19;18.00;;;11.83;;
1679;SDS011;838;51.794;12.258;2022-11-15T01:50:08;18.43;;;11.60;;
1679;SDS011;838;51.794;12.258;2022-11-15T01:52:35;18.07;;;12.07;;
1679;SDS011;838;51.794;12.258;2022-11-15T01:57:44;18.23;;;11.93;;
1679;SDS011;838;51.794;12.258;2022-11-15T02:00:12;19.07;;;11.40;;
1679;SDS011;838;51.794;12.258;2022-11-15T02:02:38;17.20;;;12.00;;
1679;SDS011;838;51.794;12.258;2022-11-15T02:05:05;18.23;;;11.77;;
1679;SDS011;838;51.794;12.258;2022-11-15T02:07:32;17.90;;;12.50;;
1679;SDS011;838;51.794;12.258;2022-11-15T02:10:02;18.30;;;13.20;;
1679;SDS011;838;51.794;12.258;2022-11-15T02:12:49;19.03;;;12.10;;
1679;SDS011;838;51.794;12.258;2022-11-15T02:15:15;18.33;;;12.00;;
1679;SDS011;838;51.794;12.258;2022-11-15T02:21:04;16.07;;;10.50;;
1679;SDS011;838;51.794;12.258;2022-11-15T02:23:31;18.03;;;12.33;;
1679;SDS011;838;51.794;12.258;2022-11-15T02:29:05;15.57;;;9.87;;
1679;SDS011;838;51.794;12.258;2022-11-15T02:31:46;17.03;;;10.60;;
1679;SDS011;838;51.794;12.258;2022-11-15T02:42:26;17.83;;;11.87;;
1679;SDS011;838;51.794;12.258;2022-11-15T02:45:27;16.73;;;10.93;;
1679;SDS011;838;51.794;12.258;2022-11-15T02:47:56;18.00;;;12.03;;
1679;SDS011;838;51.794;12.258;2022-11-15T02:50:25;17.50;;;11.17;;
1679;SDS011;838;51.794;12.258;2022-11-15T02:52:53;21.67;;;13.00;;
1679;SDS011;838;51.794;12.258;2022-11-15T02:55:37;16.90;;;10.87;;
1679;SDS011;838;51.794;12.258;2022-11-15T03:03:29;16.90;;;11.33;;
1679;SDS011;838;51.794;12.258;2022-11-15T03:09:08;17.60;;;11.63;;
1679;SDS011;838;51.794;12.258;2022-11-15T03:36:06;17.33;;;11.80;;
1679;SDS011;838;51.794;12.258;2022-11-15T03:58:39;14.90;;;10.03;;
1679;SDS011;838;51.794;12.258;2022-11-15T04:08:21;18.73;;;10.90;;
1679;SDS011;838;51.794;12.258;2022-11-15T04:11:03;14.27;;;9.73;;
1679;SDS011;838;51.794;12.258;2022-11-15T04:14:29;19.43;;;11.00;;
1679;SDS011;838;51.794;12.258;2022-11-15T04:20:47;16.03;;;11.63;;
1679;SDS011;838;51.794;12.258;2022-11-15T05:01:24;13.07;;;9.07;;
1679;SDS011;838;51.794;12.258;2022-11-15T05:24:59;12.70;;;10.10;;
1679;SDS011;838;51.794;12.258;2022-11-15T05:42:17;13.37;;;9.23;;
1679;SDS011;838;51.794;12.258;2022-11-15T05:45:23;14.43;;;9.80;;
1679;SDS011;838;51.794;12.258;2022-11-15T06:05:57;14.60;;;9.93;;
1679;SDS011;838;51.794;12.258;2022-11-15T06:08:49;11.73;;;8.77;;
1679;SDS011;838;51.794;12.258;2022-11-15T06:12:09;13.87;;;9.90;;
1679;SDS011;838;51.794;12.258;2022-11-15T06:15:04;12.33;;;9.07;;
1679;SDS011;838;51.794;12.258;2022-11-15T06:48:56;11.60;;;7.93;;
1679;SDS011;838;51.794;12.258;2022-11-15T06:58:53;16.33;;;10.50;;
1679;SDS011;838;51.794;12.258;2022-11-15T07:04:54;13.87;;;9.53;;
1679;SDS011;838;51.794;12.258;2022-11-15T07:21:02;13.87;;;8.80;;
1679;SDS011;838;51.794;12.258;2022-11-15T07:23:45;12.10;;;9.03;;
1679;SDS011;838;51.794;12.258;2022-11-15T07:26:11;14.47;;;9.40;;
1679;SDS011;838;51.794;12.258;2022-11-15T07:28:37;11.23;;;7.77;;
1679;SDS011;838;51.794;12.258;2022-11-15T07:31:04;10.00;;;7.23;;
1679;SDS011;838;51.794;12.258;2022-11-15T07:33:32;9.97;;;7.20;;
1679;SDS011;838;51.794;12.258;2022-11-15T07:35:59;9.40;;;7.00;;
1679;SDS011;838;51.794;12.258;2022-11-15T07:38:28;11.27;;;8.07;;
1679;SDS011;838;51.794;12.258;2022-11-15T07:40:58;11.40;;;8.10;;
1679;SDS011;838;51.794;12.258;2022-11-15T07:43:25;14.00;;;8.40;;
1679;SDS011;838;51.794;12.258;2022-11-15T07:45:54;13.80;;;8.30;;
1679;SDS011;838;51.794;12.258;2022-11-15T07:48:20;10.10;;;7.20;;
1679;SDS011;838;51.794;12.258;2022-11-15T07:50:46;10.10;;;6.70;;
1679;SDS011;838;51.794;12.258;2022-11-15T07:53:12;11.70;;;7.37;;
1679;SDS011;838;51.794;12.258;2022-11-15T07:55:39;11.53;;;7.80;;
1679;SDS011;838;51.794;12.258;2022-11-15T07:58:07;12.63;;;8.40;;
1679;SDS011;838;51.794;12.258;2022-11-15T08:00:38;18.23;;;8.30;;
1679;SDS011;838;51.794;12.258;2022-11-15T08:03:11;10.80;;;7.90;;
1679;SDS011;838;51.794;12.258;2022-11-15T08:05:40;11.20;;;7.57;;
1679;SDS011;838;51.794;12.258;2022-11-15T08:08:15;10.60;;;7.50;;
1679;SDS011;838;51.794;12.258;2022-11-15T08:10:47;13.07;;;7.77;;
1679;SDS011;838;51.794;12.258;2022-11-15T08:13:15;10.40;;;7.43;;
1679;SDS011;838;51.794;12.258;2022-11-15T08:15:41;11.77;;;8.57;;
1679;SDS011;838;51.794;12.258;2022-11-15T08:18:17;10.13;;;7.40;;
1679;SDS011;838;51.794;12.258;2022-11-15T08:20:43;10.63;;;8.00;;
1679;SDS011;838;51.794;12.258;2022-11-15T08:23:10;11.50;;;7.70;;
1679;SDS011;838;51.794;12.258;2022-11-15T08:25:38;10.73;;;7.20;;
1679;SDS011;838;51.794;12.258;2022-11-15T08:28:07;9.67;;;6.93;;
1679;SDS011;838;51.794;12.258;2022-11-15T08:30:37;9.67;;;7.17;;
1679;SDS011;838;51.794;12.258;2022-11-15T08:33:09;8.70;;;6.90;;
1679;SDS011;838;51.794;12.258;2022-11-15T08:35:36;8.53;;;6.43;;
1679;SDS011;838;51.794;12.258;2022-11-15T08:38:02;13.30;;;7.27;;
1679;SDS011;838;51.794;12.258;2022-11-15T08:40:28;9.80;;;6.40;;
1679;SDS011;838;51.794;12.258;2022-11-15T08:42:53;12.97;;;6.90;;
1679;SDS011;838;51.794;12.258;2022-11-15T08:45:19;9.83;;;6.00;;
1679;SDS011;838;51.794;12.258;2022-11-15T08:47:45;11.63;;;6.47;;
1679;SDS011;838;51.794;12.258;2022-11-15T08:50:11;9.90;;;6.33;;
1679;SDS011;838;51.794;12.258;2022-11-15T08:52:37;8.40;;;6.17;;
1679;SDS011;838;51.794;12.258;2022-11-15T08:55:02;10.67;;;7.60;;
1679;SDS011;838;51.794;12.258;2022-11-15T08:57:29;9.10;;;6.57;;
1679;SDS011;838;51.794;12.258;2022-11-15T08:59:55;9.10;;;6.97;;
1679;SDS011;838;51.794;12.258;2022-11-15T09:02:21;9.57;;;7.20;;
1679;SDS011;838;51.794;12.258;2022-11-15T09:04:47;12.33;;;6.70;;
1679;SDS011;838;51.794;12.258;2022-11-15T09:07:13;9.13;;;6.70;;
1679;SDS011;838;51.794;12.258;2022-11-15T09:09:39;11.20;;;6.87;;
1679;SDS011;838;51.794;12.258;2022-11-15T09:12:07;9.10;;;6.67;;
1679;SDS011;838;51.794;12.258;2022-11-15T09:14:34;10.27;;;7.37;;
1679;SDS011;838;51.794;12.258;2022-11-15T09:17:00;10.07;;;7.30;;
1679;SDS011;838;51.794;12.258;2022-11-15T09:19:29;9.17;;;6.60;;
1679;SDS011;838;51.794;12.258;2022-11-15T09:21:58;12.97;;;7.77;;
1679;SDS011;838;51.794;12.258;2022-11-15T09:24:23;9.70;;;6.97;;
1679;SDS011;838;51.794;12.258;2022-11-15T09:26:50;6.67;;;5.90;;
1679;SDS011;838;51.794;12.258;2022-11-15T09:29:16;12.40;;;7.57;;
1679;SDS011;838;51.794;12.258;2022-11-15T09:31:43;12.53;;;7.33;;
1679;SDS011;838;51.794;12.258;2022-11-15T09:34:09;10.03;;;7.73;;
1679;SDS011;838;51.794;12.258;2022-11-15T09:36:35;12.33;;;6.93;;
1679;SDS011;838;51.794;12.258;2022-11-15T09:39:00;10.40;;;7.17;;
1679;SDS011;838;51.794;12.258;2022-11-15T09:44:16;9.83;;;7.20;;
1679;SDS011;838;51.794;12.258;2022-11-15T09:49:33;9.87;;;6.60;;
1679;SDS011;838;51.794;12.258;2022-11-15T09:51:59;10.17;;;6.63;;
1679;SDS011;838;51.794;12.258;2022-11-15T09:54:34;10.33;;;6.67;;
1679;SDS011;838;51.794;12.258;2022-11-15T10:05:33;8.60;;;6.53;;
1679;SDS011;838;51.794;12.258;2022-11-15T10:11:35;8.87;;;6.20;;
1679;SDS011;838;51.794;12.258;2022-11-15T10:14:40;8.17;;;5.90;;
1679;SDS011;838;51.794;12.258;2022-11-15T10:27:34;6.90;;;4.97;;
1679;SDS011;838;51.794;12.258;2022-11-15T10:30:01;13.40;;;6.47;;
1679;SDS011;838;51.794;12.258;2022-11-15T10:32:35;7.87;;;4.73;;
1679;SDS011;838;51.794;12.258;2022-11-15T10:35:15;8.00;;;4.90;;
1679;SDS011;838;51.794;12.258;2022-11-15T10:37:47;9.17;;;5.47;;
1679;SDS011;838;51.794;12.258;2022-11-15T10:40:22;9.37;;;5.20;;
1679;SDS011;838;51.794;12.258;2022-11-15T10:45:34;5.33;;;3.83;;
1679;SDS011;838;51.794;12.258;2022-11-15T10:50:45;8.60;;;5.10;;
1679;SDS011;838;51.794;12.258;2022-11-15T10:53:15;8.43;;;5.27;;
1679;SDS011;838;51.794;12.258;2022-11-15T10:55:59;7.03;;;5.03;;
1679;SDS011;838;51.794;12.258;2022-11-15T10:58:43;9.03;;;4.80;;
1679;SDS011;838;51.794;12.258;2022-11-15T11:01:16;7.10;;;4.90;;
1679;SDS011;838;51.794;12.258;2022-11-15T11:03:45;7.63;;;4.87;;
1679;SDS011;838;51.794;12.258;2022-11-15T11:06:24;8.20;;;4.80;;
1679;SDS011;838;51.794;12.258;2022-11-15T11:08:57;6.57;;;3.97;;
1679;SDS011;838;51.794;12.258;2022-11-15T11:11:24;7.90;;;4.80;;
1679;SDS011;838;51.794;12.258;2022-11-15T11:14:24;6.10;;;4.80;;
1679;SDS011;838;51.794;12.258;2022-11-15T11:20:10;7.93;;;4.87;;
1679;SDS011;838;51.794;12.258;2022-11-15T11:25:38;7.13;;;4.97;;
1679;SDS011;838;51.794;12.258;2022-11-15T11:31:32;6.63;;;4.50;;
1679;SDS011;838;51.794;12.258;2022-11-15T11:34:14;6.27;;;4.60;;
1679;SDS011;838;51.794;12.258;2022-11-15T11:37:07;7.37;;;4.43;;
1679;SDS011;838;51.794;12.258;2022-11-15T11:50:30;5.37;;;3.57;;
1679;SDS011;838;51.794;12.258;2022-11-15T12:01:17;6.20;;;4.20;;
1679;SDS011;838;51.794;12.258;2022-11-15T12:03:55;7.17;;;3.70;;
1679;SDS011;838;51.794;12.258;2022-11-15T12:06:41;5.53;;;3.90;;
1679;SDS011;838;51.794;12.258;2022-11-15T12:17:40;5.40;;;3.57;;
1679;SDS011;838;51.794;12.258;2022-11-15T12:20:15;5.90;;;3.97;;
1679;SDS011;838;51.794;12.258;2022-11-15T12:25:19;6.00;;;3.60;;
1679;SDS011;838;51.794;12.258;2022-11-15T12:36:29;6.10;;;3.10;;
1679;SDS011;838;51.794;12.258;2022-11-15T12:39:05;6.53;;;4.10;;
1679;SDS011;838;51.794;12.258;2022-11-15T12:41:34;6.53;;;3.63;;
1679;SDS011;838;51.794;12.258;2022-11-15T12:44:02;7.83;;;3.77;;
1679;SDS011;838;51.794;12.258;2022-11-15T12:48:59;6.00;;;4.13;;
1679;SDS011;838;51.794;12.258;2022-11-15T12:57:49;7.50;;;4.27;;
1679;SDS011;838;51.794;12.258;2022-11-15T12:59:53;6.00;;;3.93;;
1679;SDS011;838;51.794;12.258;2022-11-15T13:17:56;7.73;;;4.97;;
1679;SDS011;838;51.794;12.258;2022-11-15T13:20:23;6.27;;;3.57;;
1679;SDS011;838;51.794;12.258;2022-11-15T13:23:13;11.20;;;3.77;;
1679;SDS011;838;51.794;12.258;2022-11-15T13:25:49;5.50;;;3.67;;
1679;SDS011;838;51.794;12.258;2022-11-15T13:33:15;7.17;;;3.80;;
1679;SDS011;838;51.794;12.258;2022-11-15T13:38:43;4.77;;;3.10;;
1679;SDS011;838;51.794;12.258;2022-11-15T13:41:22;6.20;;;3.83;;
1679;SDS011;838;51.794;12.258;2022-11-15T13:43:50;7.20;;;3.90;;
1679;SDS011;838;51.794;12.258;2022-11-15T13:46:18;4.93;;;3.67;;
1679;SDS011;838;51.794;12.258;2022-11-15T13:48:46;5.70;;;3.47;;
1679;SDS011;838;51.794;12.258;2022-11-15T13:51:18;4.90;;;3.67;;
1679;SDS011;838;51.794;12.258;2022-11-15T13:53:48;7.40;;;3.60;;
1679;SDS011;838;51.794;12.258;2022-11-15T13:56:18;7.70;;;4.60;;
1679;SDS011;838;51.794;12.258;2022-11-15T13:58:45;7.00;;;3.43;;
1679;SDS011;838;51.794;12.258;2022-11-15T14:01:16;4.80;;;3.07;;
1679;SDS011;838;51.794;12.258;2022-11-15T14:03:50;8.00;;;4.50;;
1679;SDS011;838;51.794;12.258;2022-11-15T14:06:28;4.93;;;3.20;;
1679;SDS011;838;51.794;12.258;2022-11-15T14:09:55;5.60;;;3.77;;
1679;SDS011;838;51.794;12.258;2022-11-15T14:11:55;9.70;;;6.10;;
1679;SDS011;838;51.794;12.258;2022-11-15T14:14:25;7.70;;;3.30;;
1679;SDS011;838;51.794;12.258;2022-11-15T14:16:58;8.40;;;3.67;;
1679;SDS011;838;51.794;12.258;2022-11-15T14:25:04;5.13;;;3.20;;
1679;SDS011;838;51.794;12.258;2022-11-15T14:27:40;5.47;;;3.00;;
1679;SDS011;838;51.794;12.258;2022-11-15T14:30:12;5.00;;;2.73;;
1679;SDS011;838;51.794;12.258;2022-11-15T14:32:46;7.37;;;3.40;;
1679;SDS011;838;51.794;12.258;2022-11-15T14:35:19;6.93;;;3.43;;
1679;SDS011;838;51.794;12.258;2022-11-15T14:37:47;4.50;;;2.70;;
1679;SDS011;838;51.794;12.258;2022-11-15T14:40:14;6.10;;;3.53;;
1679;SDS011;838;51.794;12.258;2022-11-15T14:42:44;5.27;;;3.00;;
1679;SDS011;838;51.794;12.258;2022-11-15T14:45:15;7.00;;;3.00;;
1679;SDS011;838;51.794;12.258;2022-11-15T14:47:43;5.87;;;3.20;;
1679;SDS011;838;51.794;12.258;2022-11-15T14:50:16;4.77;;;2.90;;
1679;SDS011;838;51.794;12.258;2022-11-15T14:52:43;6.03;;;3.47;;
1679;SDS011;838;51.794;12.258;2022-11-15T14:55:23;4.60;;;2.80;;
1679;SDS011;838;51.794;12.258;2022-11-15T14:57:50;10.37;;;4.20;;
1679;SDS011;838;51.794;12.258;2022-11-15T15:00:17;7.17;;;4.30;;
1679;SDS011;838;51.794;12.258;2022-11-15T15:02:44;5.43;;;2.97;;
1679;SDS011;838;51.794;12.258;2022-11-15T15:05:15;5.67;;;3.20;;
1679;SDS011;838;51.794;12.258;2022-11-15T15:07:45;8.73;;;3.57;;
1679;SDS011;838;51.794;12.258;2022-11-15T15:10:12;7.27;;;3.23;;
1679;SDS011;838;51.794;12.258;2022-11-15T15:12:38;7.60;;;3.37;;
1679;SDS011;838;51.794;12.258;2022-11-15T15:15:05;10.37;;;3.90;;
1679;SDS011;838;51.794;12.258;2022-11-15T15:17:31;24.10;;;5.83;;
1679;SDS011;838;51.794;12.258;2022-11-15T15:19:57;20.47;;;4.40;;
1679;SDS011;838;51.794;12.258;2022-11-15T15:22:23;6.87;;;3.80;;
1679;SDS011;838;51.794;12.258;2022-11-15T15:24:53;5.20;;;3.00;;
1679;SDS011;838;51.794;12.258;2022-11-15T15:27:19;4.70;;;3.40;;
1679;SDS011;838;51.794;12.258;2022-11-15T15:29:45;3.90;;;2.73;;
1679;SDS011;838;51.794;12.258;2022-11-15T15:32:11;5.13;;;3.27;;
1679;SDS011;838;51.794;12.258;2022-11-15T15:34:38;4.73;;;3.17;;
1679;SDS011;838;51.794;12.258;2022-11-15T15:39:54;4.20;;;2.70;;
1679;SDS011;838;51.794;12.258;2022-11-15T15:42:21;4.80;;;3.47;;
1679;SDS011;838;51.794;12.258;2022-11-15T15:44:51;5.20;;;2.87;;
1679;SDS011;838;51.794;12.258;2022-11-15T15:47:20;4.80;;;2.97;;
1679;SDS011;838;51.794;12.258;2022-11-15T15:49:48;6.10;;;4.27;;
1679;SDS011;838;51.794;12.258;2022-11-15T15:52:15;4.70;;;3.10;;
1679;SDS011;838;51.794;12.258;2022-11-15T15:54:41;6.47;;;3.70;;
1679;SDS011;838;51.794;12.258;2022-11-15T15:57:08;6.90;;;5.03;;
1679;SDS011;838;51.794;12.258;2022-11-15T15:59:36;19.80;;;6.00;;
1679;SDS011;838;51.794;12.258;2022-11-15T16:02:03;9.30;;;6.60;;
1679;SDS011;838;51.794;12.258;2022-11-15T16:04:29;14.20;;;5.77;;
1679;SDS011;838;51.794;12.258;2022-11-15T16:07:01;5.60;;;3.83;;
1679;SDS011;838;51.794;12.258;2022-11-15T16:09:33;7.20;;;4.60;;
1679;SDS011;838;51.794;12.258;2022-11-15T16:12:17;7.30;;;3.67;;
1679;SDS011;838;51.794;12.258;2022-11-15T16:14:43;7.10;;;3.70;;
1679;SDS011;838;51.794;12.258;2022-11-15T16:17:20;5.87;;;3.20;;
1679;SDS011;838;51.794;12.258;2022-11-15T16:19:47;4.90;;;3.20;;
1679;SDS011;838;51.794;12.258;2022-11-15T16:22:13;8.20;;;4.40;;
1679;SDS011;838;51.794;12.258;2022-11-15T16:24:39;8.00;;;4.90;;
1679;SDS011;838;51.794;12.258;2022-11-15T16:27:05;9.10;;;5.47;;
1679;SDS011;838;51.794;12.258;2022-11-15T16:29:37;9.07;;;4.10;;
1679;SDS011;838;51.794;12.258;2022-11-15T16:32:03;8.10;;;5.30;;
1679;SDS011;838;51.794;12.258;2022-11-15T16:34:29;11.93;;;7.20;;
1679;SDS011;838;51.794;12.258;2022-11-15T16:36:55;10.17;;;7.10;;
1679;SDS011;838;51.794;12.258;2022-11-15T16:39:21;11.50;;;8.43;;
1679;SDS011;838;51.794;12.258;2022-11-15T16:41:47;12.07;;;7.80;;
1679;SDS011;838;51.794;12.258;2022-11-15T16:44:13;20.23;;;10.83;;
1679;SDS011;838;51.794;12.258;2022-11-15T16:46:42;15.90;;;11.30;;
1679;SDS011;838;51.794;12.258;2022-11-15T16:49:13;15.73;;;10.37;;
1679;SDS011;838;51.794;12.258;2022-11-15T16:51:40;15.50;;;9.93;;
1679;SDS011;838;51.794;12.258;2022-11-15T16:54:09;13.80;;;8.20;;
1679;SDS011;838;51.794;12.258;2022-11-15T16:56:35;12.23;;;7.93;;
1679;SDS011;838;51.794;12.258;2022-11-15T16:59:02;12.70;;;9.40;;
1679;SDS011;838;51.794;12.258;2022-11-15T17:01:35;12.73;;;8.60;;
1679;SDS011;838;51.794;12.258;2022-11-15T17:04:15;15.87;;;8.83;;
1679;SDS011;838;51.794;12.258;2022-11-15T17:06:42;14.70;;;7.87;;
1679;SDS011;838;51.794;12.258;2022-11-15T17:09:11;12.10;;;7.93;;
1679;SDS011;838;51.794;12.258;2022-11-15T17:11:40;11.17;;;6.47;;
1679;SDS011;838;51.794;12.258;2022-11-15T17:14:06;9.90;;;6.60;;
1679;SDS011;838;51.794;12.258;2022-11-15T17:16:32;12.73;;;8.93;;
1679;SDS011;838;51.794;12.258;2022-11-15T17:18:59;13.60;;;9.37;;
1679;SDS011;838;51.794;12.258;2022-11-15T17:21:26;10.73;;;7.47;;
1679;SDS011;838;51.794;12.258;2022-11-15T17:23:55;9.67;;;7.33;;
1679;SDS011;838;51.794;12.258;2022-11-15T17:26:23;14.57;;;8.80;;
1679;SDS011;838;51.794;12.258;2022-11-15T17:28:53;18.83;;;11.13;;
1679;SDS011;838;51.794;12.258;2022-11-15T17:31:20;16.40;;;11.37;;
1679;SDS011;838;51.794;12.258;2022-11-15T17:33:45;15.00;;;11.70;;
1679;SDS011;838;51.794;12.258;2022-11-15T17:36:11;18.00;;;12.40;;
1679;SDS011;838;51.794;12.258;2022-11-15T17:38:37;17.00;;;11.60;;
1679;SDS011;838;51.794;12.258;2022-11-15T17:41:12;19.17;;;12.47;;
1679;SDS011;838;51.794;12.258;2022-11-15T17:43:39;18.80;;;11.40;;
1679;SDS011;838;51.794;12.258;2022-11-15T17:46:06;17.33;;;13.27;;
1679;SDS011;838;51.794;12.258;2022-11-15T17:48:34;16.70;;;12.23;;
1679;SDS011;838;51.794;12.258;2022-11-15T17:51:01;19.90;;;15.10;;
1679;SDS011;838;51.794;12.258;2022-11-15T17:53:33;20.20;;;14.47;;
1679;SDS011;838;51.794;12.258;2022-11-15T17:56:08;14.87;;;9.50;;
1679;SDS011;838;51.794;12.258;2022-11-15T17:58:39;13.67;;;9.47;;
1679;SDS011;838;51.794;12.258;2022-11-15T18:03:34;15.10;;;9.40;;
1679;SDS011;838;51.794;12.258;2022-11-15T18:06:03;15.47;;;9.80;;
1679;SDS011;838;51.794;12.258;2022-11-15T18:08:30;15.10;;;10.27;;
1679;SDS011;838;51.794;12.258;2022-11-15T18:13:29;14.00;;;10.30;;
1679;SDS011;838;51.794;12.258;2022-11-15T18:15:55;16.03;;;11.33;;
1679;SDS011;838;51.794;12.258;2022-11-15T18:18:26;19.33;;;10.33;;
1679;SDS011;838;51.794;12.258;2022-11-15T18:21:06;20.33;;;11.20;;
1679;SDS011;838;51.794;12.258;2022-11-15T18:23:36;15.17;;;9.50;;
1679;SDS011;838;51.794;12.258;2022-11-15T18:26:02;16.43;;;10.97;;
1679;SDS011;838;51.794;12.258;2022-11-15T18:28:33;14.67;;;9.43;;
1679;SDS011;838;51.794;12.258;2022-11-15T18:31:01;12.40;;;9.40;;
1679;SDS011;838;51.794;12.258;2022-11-15T18:33:28;14.87;;;10.37;;
1679;SDS011;838;51.794;12.258;2022-11-15T18:36:02;23.90;;;15.60;;
1679;SDS011;838;51.794;12.258;2022-11-15T18:38:29;23.33;;;15.43;;
1679;SDS011;838;51.794;12.258;2022-11-15T18:41:05;21.13;;;14.00;;
1679;SDS011;838;51.794;12.258;2022-11-15T18:43:33;22.27;;;12.33;;
1679;SDS011;838;51.794;12.258;2022-11-15T18:46:07;16.97;;;10.60;;
1679;SDS011;838;51.794;12.258;2022-11-15T18:48:39;18.00;;;11.27;;
1679;SDS011;838;51.794;12.258;2022-11-15T18:51:07;25.93;;;12.93;;
1679;SDS011;838;51.794;12.258;2022-11-15T18:53:35;18.07;;;12.70;;
1679;SDS011;838;51.794;12.258;2022-11-15T18:56:05;19.20;;;12.10;;
1679;SDS011;838;51.794;12.258;2022-11-15T18:58:39;15.47;;;10.30;;
1679;SDS011;838;51.794;12.258;2022-11-15T19:01:07;21.87;;;15.17;;
1679;SDS011;838;51.794;12.258;2022-11-15T19:03:41;23.10;;;15.97;;
1679;SDS011;838;51.794;12.258;2022-11-15T19:06:12;21.67;;;15.90;;
1679;SDS011;838;51.794;12.258;2022-11-15T19:08:46;23.53;;;15.90;;
1679;SDS011;838;51.794;12.258;2022-11-15T19:11:17;22.63;;;15.43;;
1679;SDS011;838;51.794;12.258;2022-11-15T19:13:47;19.37;;;14.27;;
1679;SDS011;838;51.794;12.258;2022-11-15T19:16:19;20.27;;;13.93;;
1679;SDS011;838;51.794;12.258;2022-11-15T19:18:45;20.60;;;14.50;;
1679;SDS011;838;51.794;12.258;2022-11-15T19:21:11;18.13;;;13.50;;
1679;SDS011;838;51.794;12.258;2022-11-15T19:23:38;20.03;;;13.07;;
1679;SDS011;838;51.794;12.258;2022-11-15T19:26:05;18.50;;;13.17;;
1679;SDS011;838;51.794;12.258;2022-11-15T19:28:34;19.07;;;14.50;;
1679;SDS011;838;51.794;12.258;2022-11-15T19:33:35;17.53;;;13.60;;
1679;SDS011;838;51.794;12.258;2022-11-15T19:36:01;18.13;;;13.50;;
1679;SDS011;838;51.794;12.258;2022-11-15T19:38:29;20.50;;;13.90;;
1679;SDS011;838;51.794;12.258;2022-11-15T19:41:00;18.47;;;12.80;;
1679;SDS011;838;51.794;12.258;2022-11-15T19:43:27;18.70;;;12.60;;
1679;SDS011;838;51.794;12.258;2022-11-15T19:46:03;18.63;;;13.33;;
1679;SDS011;838;51.794;12.258;2022-11-15T19:48:31;19.57;;;13.80;;
1679;SDS011;838;51.794;12.258;2022-11-15T19:51:05;22.50;;;13.90;;
1679;SDS011;838;51.794;12.258;2022-11-15T19:53:35;18.50;;;13.70;;
1679;SDS011;838;51.794;12.258;2022-11-15T19:56:04;19.00;;;13.87;;
1679;SDS011;838;51.794;12.258;2022-11-15T19:58:37;18.93;;;13.63;;
1679;SDS011;838;51.794;12.258;2022-11-15T20:01:08;19.03;;;13.97;;
1679;SDS011;838;51.794;12.258;2022-11-15T20:03:38;20.83;;;14.47;;
1679;SDS011;838;51.794;12.258;2022-11-15T20:06:08;21.10;;;14.90;;
1679;SDS011;838;51.794;12.258;2022-11-15T20:08:36;18.90;;;14.10;;
1679;SDS011;838;51.794;12.258;2022-11-15T20:11:02;22.00;;;15.37;;
1679;SDS011;838;51.794;12.258;2022-11-15T20:13:29;19.97;;;15.40;;
1679;SDS011;838;51.794;12.258;2022-11-15T20:15:55;23.37;;;15.43;;
1679;SDS011;838;51.794;12.258;2022-11-15T20:18:22;21.53;;;15.10;;
1679;SDS011;838;51.794;12.258;2022-11-15T20:20:49;21.77;;;15.37;;
1679;SDS011;838;51.794;12.258;2022-11-15T20:23:15;22.93;;;14.73;;
1679;SDS011;838;51.794;12.258;2022-11-15T20:25:45;23.30;;;15.93;;
1679;SDS011;838;51.794;12.258;2022-11-15T20:28:16;23.77;;;15.57;;
1679;SDS011;838;51.794;12.258;2022-11-15T20:30:43;20.40;;;15.60;;
1679;SDS011;838;51.794;12.258;2022-11-15T20:33:10;21.40;;;15.07;;
1679;SDS011;838;51.794;12.258;2022-11-15T20:35:37;19.23;;;14.00;;
1679;SDS011;838;51.794;12.258;2022-11-15T20:38:05;19.03;;;14.20;;
1679;SDS011;838;51.794;12.258;2022-11-15T20:40:34;20.83;;;14.90;;
1679;SDS011;838;51.794;12.258;2022-11-15T20:43:00;33.00;;;19.80;;
1679;SDS011;838;51.794;12.258;2022-11-15T20:45:26;30.83;;;20.40;;
1679;SDS011;838;51.794;12.258;2022-11-15T20:47:58;44.60;;;25.73;;
1679;SDS011;838;51.794;12.258;2022-11-15T20:50:24;20.67;;;15.07;;
1679;SDS011;838;51.794;12.258;2022-11-15T20:52:51;20.03;;;14.70;;
1679;SDS011;838;51.794;12.258;2022-11-15T20:55:17;22.93;;;16.17;;
1679;SDS011;838;51.794;12.258;2022-11-15T20:57:43;20.77;;;14.30;;
1679;SDS011;838;51.794;12.258;2022-11-15T21:00:09;19.97;;;15.87;;
1679;SDS011;838;51.794;12.258;2022-11-15T21:02:35;21.63;;;15.50;;
1679;SDS011;838;51.794;12.258;2022-11-15T21:05:02;25.63;;;16.10;;
1679;SDS011;838;51.794;12.258;2022-11-15T21:07:29;21.43;;;14.83;;
1679;SDS011;838;51.794;12.258;2022-11-15T21:09:55;20.90;;;15.30;;
1679;SDS011;838;51.794;12.258;2022-11-15T21:12:39;20.20;;;14.23;;
1679;SDS011;838;51.794;12.258;2022-11-15T21:15:05;21.40;;;15.07;;
1679;SDS011;838;51.794;12.258;2022-11-15T21:17:32;19.47;;;14.40;;